Time;durP1;ratioP1;P1;durP2;ratioP2;P2;SDS_P1;SDS_P2;PMS_P1;PMS_P2;Temp;Humidity;BMP_temperature;BMP_pressure;BME280_temperature;BME280_humidity;BME280_pressure;Samples;Min_cycle;Max_cycle;Signal;HPM_P1;HPM_P2
2021/12/02 00:01:14;;;;;;;23.40;5.53;;;;;;;2.63;100.00;99821.06;5121544;28;20031;-79
2021/12/02 00:03:41;;;;;;;23.02;5.25;;;;;;;2.61;100.00;99814.94;5124978;28;20034;-72
2021/12/02 00:06:11;;;;;;;23.25;5.35;;;;;;;2.65;100.00;99819.38;5122768;28;20024;-71
2021/12/02 00:08:36;;;;;;;22.35;5.38;;;;;;;2.69;100.00;99815.94;5124865;28;20023;-71
2021/12/02 00:11:03;;;;;;;23.63;5.50;;;;;;;2.76;100.00;99824.78;5123532;28;20388;-72
2021/12/02 00:13:31;;;;;;;24.33;5.50;;;;;;;2.79;100.00;99824.84;5127795;27;20106;-71
2021/12/02 00:16:01;;;;;;;23.48;4.95;;;;;;;2.89;100.00;99828.53;5110521;27;20419;-71
2021/12/02 00:21:07;;;;;;;23.33;5.40;;;;;;;2.78;100.00;99821.38;5150883;27;20058;-70
2021/12/02 00:23:48;;;;;;;21.60;4.20;;;;;;;2.74;100.00;99827.38;5148266;27;20043;-68
2021/12/02 00:26:17;;;;;;;20.40;3.80;;;;;;;2.73;100.00;99828.22;5141732;27;20026;-70
2021/12/02 00:28:43;;;;;;;20.85;4.00;;;;;;;2.70;100.00;99830.75;5141055;27;20032;-69
2021/12/02 00:31:17;;;;;;;21.70;4.07;;;;;;;2.69;100.00;99821.16;5148348;27;20023;-68
2021/12/02 00:33:49;;;;;;;22.02;4.00;;;;;;;2.70;100.00;99820.31;5141419;27;20106;-70
2021/12/02 00:36:16;;;;;;;19.63;3.90;;;;;;;2.71;100.00;99819.50;5130726;27;20115;-69
2021/12/02 00:38:44;;;;;;;21.10;4.28;;;;;;;2.65;100.00;99808.94;5120963;27;20147;-69
2021/12/02 00:41:18;;;;;;;21.65;3.83;;;;;;;2.60;100.00;99806.22;5128217;27;20027;-68
2021/12/02 00:43:45;;;;;;;23.65;4.07;;;;;;;2.56;100.00;99811.34;5120730;27;20023;-70
2021/12/02 00:46:16;;;;;;;22.45;4.00;;;;;;;2.50;100.00;99814.69;5120277;27;20019;-69
2021/12/02 00:48:42;;;;;;;22.42;4.07;;;;;;;2.52;100.00;99813.03;5120134;27;20023;-68
2021/12/02 00:51:08;;;;;;;21.70;4.00;;;;;;;2.53;100.00;99813.88;5127534;27;20469;-70
2021/12/02 00:53:36;;;;;;;22.73;4.22;;;;;;;2.55;100.00;99814.78;5124994;27;20035;-70
2021/12/02 00:56:07;;;;;;;21.70;3.97;;;;;;;2.58;100.00;99812.28;5126432;27;20024;-68
2021/12/02 00:58:33;;;;;;;22.38;3.95;;;;;;;2.59;100.00;99808.78;5125475;27;20121;-68
2021/12/02 01:01:00;;;;;;;23.08;4.45;;;;;;;2.62;100.00;99806.22;5125789;27;20081;-69
2021/12/02 01:03:35;;;;;;;24.40;4.70;;;;;;;2.64;100.00;99807.16;5126153;27;20023;-69
2021/12/02 01:06:03;;;;;;;21.63;4.72;;;;;;;2.63;100.00;99808.00;5126188;27;20035;-68
2021/12/02 01:08:30;;;;;;;24.55;5.20;;;;;;;2.61;100.00;99812.31;5125715;27;20020;-70
2021/12/02 01:10:56;;;;;;;21.90;4.60;;;;;;;2.61;100.00;99807.97;5125674;27;20047;-70
2021/12/02 01:13:22;;;;;;;23.58;5.03;;;;;;;2.62;100.00;99824.50;5127828;27;20046;-70
2021/12/02 01:15:47;;;;;;;24.42;5.07;;;;;;;2.67;100.00;99814.19;5123777;27;20026;-70
2021/12/02 01:18:13;;;;;;;23.05;4.75;;;;;;;2.67;100.00;99817.66;5127041;27;20043;-69
2021/12/02 01:20:42;;;;;;;23.65;4.60;;;;;;;2.66;100.00;99813.28;5124144;27;20373;-71
2021/12/02 01:23:09;;;;;;;19.90;4.20;;;;;;;2.71;100.00;99819.50;5125745;27;20477;-70
2021/12/02 01:25:36;;;;;;;20.83;4.20;;;;;;;2.81;100.00;99819.66;5124371;27;20428;-69
2021/12/02 01:28:02;;;;;;;20.35;4.07;;;;;;;2.79;100.00;99817.03;5126021;27;20073;-69
2021/12/02 01:30:29;;;;;;;20.23;3.80;;;;;;;2.74;100.00;99824.75;5125082;27;20031;-71
2021/12/02 01:33:06;;;;;;;18.60;3.50;;;;;;;2.77;100.00;99822.22;5124754;27;20023;-69
2021/12/02 01:35:34;;;;;;;20.73;3.10;;;;;;;2.73;100.00;99822.13;5124736;27;20023;-71
2021/12/02 01:38:00;;;;;;;19.50;3.72;;;;;;;2.71;100.00;99829.03;5125438;27;20059;-69
2021/12/02 01:40:28;;;;;;;20.25;3.60;;;;;;;2.59;100.00;99841.00;5125471;27;20370;-71
2021/12/02 01:42:56;;;;;;;15.68;2.80;;;;;;;2.53;100.00;99837.38;5124162;27;20028;-71
2021/12/02 01:45:28;;;;;;;18.73;3.28;;;;;;;2.48;100.00;99842.50;5125999;27;20034;-68
2021/12/02 01:47:56;;;;;;;20.63;3.28;;;;;;;2.34;100.00;99831.75;5124098;27;20022;-68
2021/12/02 01:50:25;;;;;;;19.73;3.38;;;;;;;2.26;100.00;99833.34;5125808;27;20067;-69
2021/12/02 01:52:58;;;;;;;17.92;3.55;;;;;;;2.18;100.00;99832.28;5123912;27;20085;-68
2021/12/02 01:55:25;;;;;;;22.10;4.20;;;;;;;2.12;100.00;99832.16;5125614;27;20058;-69
2021/12/02 01:58:00;;;;;;;20.92;4.80;;;;;;;2.11;100.00;99836.47;5123570;27;20356;-68
2021/12/02 02:00:47;;;;;;;21.45;5.75;;;;;;;2.09;100.00;99831.22;5125137;27;20023;-68
2021/12/02 02:03:15;;;;;;;20.83;5.72;;;;;;;2.02;100.00;99829.31;5118793;27;20058;-68
2021/12/02 02:05:42;;;;;;;23.05;6.40;;;;;;;1.94;100.00;99828.28;5126486;27;20162;-70
2021/12/02 02:08:10;;;;;;;21.90;6.38;;;;;;;1.85;100.00;99830.66;5123382;27;20374;-70
2021/12/02 02:10:38;;;;;;;21.58;6.32;;;;;;;1.77;100.00;99847.84;5125429;27;20038;-70
2021/12/02 02:13:07;;;;;;;23.63;6.72;;;;;;;1.73;100.00;99833.84;5123763;27;20519;-69
2021/12/02 02:15:34;;;;;;;24.70;6.55;;;;;;;1.64;100.00;99833.63;5125026;27;20028;-69
2021/12/02 02:20:41;;;;;;;23.60;7.20;;;;;;;1.63;100.00;99843.19;5124799;27;20032;-69
2021/12/02 02:23:11;;;;;;;23.00;6.95;;;;;;;1.64;100.00;99828.44;5105195;27;20367;-68
2021/12/02 02:25:38;;;;;;;21.20;7.20;;;;;;;1.63;100.00;99830.16;5126037;27;20054;-69
2021/12/02 02:28:04;;;;;;;24.05;7.05;;;;;;;1.62;100.00;99824.91;5123520;27;20027;-73
2021/12/02 02:30:30;;;;;;;22.08;6.70;;;;;;;1.61;100.00;99824.03;5124028;27;20419;-70
2021/12/02 02:32:56;;;;;;;20.25;6.25;;;;;;;1.59;100.00;99825.72;5124601;27;20015;-69
2021/12/02 02:35:22;;;;;;;21.27;6.68;;;;;;;1.51;100.00;99817.69;5122357;27;20044;-70
2021/12/02 02:37:47;;;;;;;22.98;6.13;;;;;;;1.52;100.00;99834.22;5125770;27;20023;-70
2021/12/02 02:40:15;;;;;;;21.13;5.93;;;;;;;1.56;100.00;99828.25;5122254;27;20038;-69
2021/12/02 02:42:45;;;;;;;21.92;6.10;;;;;;;1.66;100.00;99834.53;5125369;27;20076;-68
2021/12/02 02:45:10;;;;;;;21.27;5.80;;;;;;;1.70;100.00;99829.47;5122157;27;20493;-70
2021/12/02 02:47:36;;;;;;;19.80;5.68;;;;;;;1.75;100.00;99829.56;5125124;27;20032;-70
2021/12/02 02:50:02;;;;;;;17.30;4.25;;;;;;;1.79;100.00;99833.13;5123390;27;20422;-72
2021/12/02 02:52:30;;;;;;;19.50;4.40;;;;;;;1.80;100.00;99827.94;5123457;27;20424;-68
2021/12/02 02:54:55;;;;;;;20.73;4.30;;;;;;;1.72;100.00;99822.56;5124336;27;20030;-69
2021/12/02 02:57:25;;;;;;;17.85;4.35;;;;;;;1.66;100.00;99821.53;5104285;27;20024;-71
2021/12/02 03:02:33;;;;;;;16.55;4.25;;;;;;;1.60;100.00;99827.47;5123023;27;20036;-69
2021/12/02 03:07:51;;;;;;;18.73;4.63;;;;;;;1.43;100.00;99834.88;5118280;27;20046;-71
2021/12/02 03:17:44;;;;;;;21.00;5.03;;;;;;;1.45;100.00;99830.56;5117378;27;20051;-71
2021/12/02 03:20:10;;;;;;;22.48;5.53;;;;;;;1.53;100.00;99841.16;5124621;27;20113;-68
2021/12/02 03:22:36;;;;;;;22.52;5.57;;;;;;;1.59;100.00;99845.66;5122570;27;20023;-69
2021/12/02 03:25:04;;;;;;;21.88;5.85;;;;;;;1.63;100.00;99843.19;5123588;27;20129;-71
2021/12/02 03:27:29;;;;;;;21.90;5.30;;;;;;;1.68;100.00;99838.97;5123174;28;20027;-71
2021/12/02 03:29:55;;;;;;;20.67;4.90;;;;;;;1.77;100.00;99840.91;5122720;28;20020;-69
2021/12/02 03:32:20;;;;;;;21.15;5.13;;;;;;;1.78;100.00;99850.50;5124288;28;20021;-70
2021/12/02 03:34:46;;;;;;;21.05;4.70;;;;;;;1.80;100.00;99847.91;5121289;28;20024;-71
2021/12/02 03:37:12;;;;;;;20.17;4.45;;;;;;;1.91;100.00;99855.16;5124930;28;20026;-71
2021/12/02 03:39:37;;;;;;;22.75;4.95;;;;;;;1.88;100.00;99851.59;5122117;28;20058;-72
2021/12/02 03:42:04;;;;;;;21.40;4.60;;;;;;;1.84;100.00;99854.97;5123642;28;20061;-72
2021/12/02 03:44:30;;;;;;;22.83;5.10;;;;;;;1.89;100.00;99866.38;5123393;28;20075;-72
2021/12/02 03:46:55;;;;;;;21.90;5.43;;;;;;;1.85;100.00;99860.22;5123185;27;20015;-72
2021/12/02 03:49:21;;;;;;;24.73;5.43;;;;;;;1.88;100.00;99855.09;5128419;27;20049;-75
2021/12/02 03:51:47;;;;;;;18.65;3.20;;;;;;;1.95;100.00;99865.66;5125717;27;20028;-73
2021/12/02 03:54:12;;;;;;;19.90;3.53;;;;;;;1.95;100.00;99856.09;5129145;27;20541;-73
2021/12/02 03:56:37;;;;;;;18.30;3.33;;;;;;;1.89;100.00;99856.84;5125874;27;20118;-71
2021/12/02 03:59:03;;;;;;;16.58;3.30;;;;;;;1.78;100.00;99846.97;5127654;27;20023;-72
2021/12/02 04:01:29;;;;;;;22.00;4.15;;;;;;;1.67;100.00;99854.56;5127255;27;20385;-73
2021/12/02 04:03:54;;;;;;;23.48;3.80;;;;;;;1.56;100.00;99846.50;5126179;27;20110;-73
2021/12/02 04:06:21;;;;;;;20.92;3.83;;;;;;;1.56;100.00;99847.34;5128366;27;20027;-74
2021/12/02 04:08:54;;;;;;;18.52;3.80;;;;;;;1.46;100.00;99850.56;5125111;27;20032;-72
2021/12/02 04:16:21;;;;;;;20.25;4.50;;;;;;;1.61;100.00;99859.63;5125540;27;20063;-72
2021/12/02 04:18:47;;;;;;;21.13;4.88;;;;;;;1.59;100.00;99845.66;5128258;27;20051;-73
2021/12/02 04:21:12;;;;;;;18.80;4.60;;;;;;;1.55;100.00;99845.59;5125349;27;20038;-72
2021/12/02 04:23:37;;;;;;;22.70;5.35;;;;;;;1.49;100.00;99840.22;5127699;27;20056;-73
2021/12/02 04:26:03;;;;;;;26.20;6.38;;;;;;;1.42;100.00;99846.13;5126335;27;20419;-73
2021/12/02 04:28:28;;;;;;;21.60;5.95;;;;;;;1.38;100.00;99842.56;5126383;27;20481;-72
2021/12/02 04:30:54;;;;;;;22.58;5.28;;;;;;;1.37;100.00;99842.53;5127359;27;20030;-72
2021/12/02 04:33:19;;;;;;;20.75;4.57;;;;;;;1.34;100.00;99845.94;5124582;27;20454;-73
2021/12/02 04:35:44;;;;;;;23.02;4.60;;;;;;;1.33;100.00;99858.94;5128585;27;20031;-73
2021/12/02 04:38:10;;;;;;;21.95;4.90;;;;;;;1.35;100.00;99852.88;5125043;27;20016;-73
2021/12/02 04:40:40;;;;;;;21.63;4.70;;;;;;;1.39;100.00;99867.75;5127001;27;20063;-72
2021/12/02 04:43:05;;;;;;;21.77;4.57;;;;;;;1.47;100.00;99877.50;5125722;27;20015;-71
2021/12/02 04:45:31;;;;;;;22.48;5.30;;;;;;;1.52;100.00;99884.59;5126311;27;20424;-72
2021/12/02 04:47:56;;;;;;;22.30;5.65;;;;;;;1.55;100.00;99882.06;5126896;27;20023;-73
2021/12/02 04:50:21;;;;;;;23.73;4.80;;;;;;;1.58;100.00;99886.47;5125052;27;20027;-71
2021/12/02 04:52:47;;;;;;;20.42;3.60;;;;;;;1.52;100.00;99888.94;5127959;27;20050;-72
2021/12/02 04:55:12;;;;;;;21.30;3.50;;;;;;;1.50;100.00;99888.00;5124989;27;20032;-70
2021/12/02 04:57:37;;;;;;;21.42;3.30;;;;;;;1.47;100.00;99885.31;5126839;27;20073;-70
2021/12/02 05:00:05;;;;;;;19.85;3.47;;;;;;;1.47;100.00;99882.72;5125682;27;20031;-73
2021/12/02 05:02:30;;;;;;;18.55;3.30;;;;;;;1.42;100.00;99880.00;5126005;27;20114;-73
2021/12/02 05:04:55;;;;;;;21.10;3.58;;;;;;;1.37;100.00;99877.28;5126757;27;20106;-74
2021/12/02 05:07:20;;;;;;;20.30;3.40;;;;;;;1.37;100.00;99879.88;5124296;27;20458;-71
2021/12/02 05:09:46;;;;;;;17.98;3.30;;;;;;;1.42;100.00;99879.13;5127567;27;20034;-73
2021/12/02 05:12:11;;;;;;;19.13;3.58;;;;;;;1.44;100.00;99882.63;5124301;27;20031;-72
2021/12/02 05:14:36;;;;;;;21.40;3.83;;;;;;;1.50;100.00;99898.41;5126418;27;20047;-71
2021/12/02 05:17:02;;;;;;;19.15;3.95;;;;;;;1.53;100.00;99895.88;5125771;27;20128;-73
2021/12/02 05:19:27;;;;;;;19.23;4.20;;;;;;;1.53;100.00;99898.47;5124862;27;20074;-73
2021/12/02 05:21:52;;;;;;;20.67;4.20;;;;;;;1.62;100.00;99909.16;5126791;27;20062;-72
2021/12/02 05:24:18;;;;;;;18.92;3.28;;;;;;;1.50;100.00;99907.13;5124405;27;20159;-73
2021/12/02 05:26:43;;;;;;;15.02;2.90;;;;;;;1.47;100.00;99916.56;5127817;27;20059;-72
2021/12/02 05:29:08;;;;;;;12.80;3.15;;;;;;;1.25;100.00;99910.78;5124744;27;20485;-73
2021/12/02 05:31:34;;;;;;;16.75;3.20;;;;;;;1.35;100.00;99919.72;5126039;27;20487;-72
2021/12/02 05:33:59;;;;;;;16.35;2.97;;;;;;;1.14;100.00;99905.28;5125412;27;20529;-73
2021/12/02 05:36:24;;;;;;;16.80;3.10;;;;;;;1.05;100.00;99897.25;5125416;27;20034;-73
2021/12/02 05:38:50;;;;;;;15.15;2.80;;;;;;;0.93;100.00;99899.50;5127760;27;20118;-72
2021/12/02 05:41:16;;;;;;;12.88;2.97;;;;;;;0.90;100.00;99895.06;5124429;27;20015;-73
2021/12/02 05:43:42;;;;;;;14.25;2.75;;;;;;;0.71;100.00;99898.00;5127847;27;20032;-73
2021/12/02 05:46:07;;;;;;;11.23;2.65;;;;;;;0.67;100.00;99905.72;5127500;27;20427;-74
2021/12/02 05:48:33;;;;;;;14.73;2.60;;;;;;;0.70;100.00;99907.53;5126364;27;20020;-72
2021/12/02 05:50:59;;;;;;;13.27;2.50;;;;;;;0.78;100.00;99915.56;5141242;27;20043;-73
2021/12/02 05:53:25;;;;;;;13.85;2.50;;;;;;;0.98;100.00;99924.81;5142872;27;20035;-73
2021/12/02 05:55:50;;;;;;;14.90;2.60;;;;;;;0.80;100.00;99919.97;5146010;27;20023;-71
2021/12/02 05:58:15;;;;;;;13.82;2.50;;;;;;;0.80;100.00;99917.38;5144156;27;20037;-74
2021/12/02 06:00:41;;;;;;;14.23;2.33;;;;;;;0.75;100.00;99915.47;5146667;27;20057;-74
2021/12/02 06:03:07;;;;;;;11.40;2.10;;;;;;;0.61;100.00;99907.25;5145534;27;20023;-72
2021/12/02 06:05:33;;;;;;;12.93;2.20;;;;;;;0.49;100.00;99910.38;5144446;27;20127;-72
2021/12/02 06:08:01;;;;;;;14.88;2.30;;;;;;;0.37;100.00;99907.41;5134527;27;20031;-73
2021/12/02 06:10:27;;;;;;;13.15;2.38;;;;;;;0.29;100.00;99905.44;5123297;27;20139;-73
2021/12/02 06:12:53;;;;;;;10.00;2.10;;;;;;;0.19;100.00;99899.91;5126029;27;20043;-72
2021/12/02 06:15:19;;;;;;;13.20;2.22;;;;;;;0.21;100.00;99903.44;5122956;27;20089;-75
2021/12/02 06:17:44;;;;;;;13.55;2.25;;;;;;;0.17;100.00;99905.06;5126415;27;20470;-70
2021/12/02 06:20:11;;;;;;;11.65;2.30;;;;;;;0.15;100.00;99910.22;5123303;27;20458;-70
2021/12/02 06:22:36;;;;;;;13.35;2.15;;;;;;;0.10;100.00;99910.91;5119738;27;20031;-70
2021/12/02 06:27:38;;;;;;;14.05;2.50;;;;;;;0.09;100.00;99927.34;5112927;27;20059;-71
2021/12/02 06:30:04;;;;;;;14.07;2.35;;;;;;;0.14;100.00;99926.63;5114815;27;20028;-71
2021/12/02 06:32:30;;;;;;;16.98;2.97;;;;;;;0.16;100.00;99935.38;5116612;27;20027;-72
2021/12/02 06:34:55;;;;;;;17.13;2.90;;;;;;;0.19;100.00;99929.41;5117156;27;20028;-71
2021/12/02 06:37:21;;;;;;;14.48;3.10;;;;;;;0.21;100.00;99922.53;5114102;27;20042;-70
2021/12/02 06:39:46;;;;;;;18.60;3.20;;;;;;;0.24;100.00;99922.59;5115317;27;20167;-70
2021/12/02 06:42:12;;;;;;;16.05;3.00;;;;;;;0.19;100.00;99919.00;5115422;27;20032;-70
2021/12/02 06:44:37;;;;;;;14.82;3.00;;;;;;;0.20;100.00;99915.53;5117966;27;20027;-70
2021/12/02 06:47:03;;;;;;;16.20;3.10;;;;;;;0.24;100.00;99922.59;5098641;28;20127;-71
2021/12/02 06:49:30;;;;;;;18.15;3.35;;;;;;;0.29;100.00;99921.06;5116885;27;20118;-71
2021/12/02 06:51:56;;;;;;;17.65;3.67;;;;;;;0.42;100.00;99937.88;5115546;27;20582;-71
2021/12/02 06:54:21;;;;;;;19.38;4.57;;;;;;;0.52;100.00;99955.56;5112300;28;20044;-71
2021/12/02 06:56:47;;;;;;;23.35;5.78;;;;;;;0.58;100.00;99965.25;5114474;27;20030;-70
2021/12/02 06:59:12;;;;;;;24.02;6.00;;;;;;;0.64;100.00;99955.06;5114558;27;20038;-70
2021/12/02 07:01:37;;;;;;;23.38;7.85;;;;;;;0.67;100.00;99962.03;5116532;27;20067;-70
2021/12/02 07:04:03;;;;;;;24.45;9.23;;;;;;;0.73;100.00;99963.97;5113725;27;20023;-70
2021/12/02 07:06:28;;;;;;;25.48;9.45;;;;;;;0.76;100.00;99969.25;5114150;27;20034;-71
2021/12/02 07:08:53;;;;;;;23.13;8.23;;;;;;;0.84;100.00;99973.84;5116255;27;20066;-70
2021/12/02 07:11:19;;;;;;;21.05;6.32;;;;;;;0.86;100.00;99971.31;5115039;27;20020;-70
2021/12/02 07:13:46;;;;;;;22.52;6.50;;;;;;;0.84;100.00;99976.44;5117318;27;20064;-72
2021/12/02 07:16:12;;;;;;;20.35;6.18;;;;;;;0.85;100.00;99986.03;5113232;28;20016;-72
2021/12/02 07:18:42;;;;;;;22.08;5.90;;;;;;;0.93;100.00;99988.84;5115824;27;20451;-72
2021/12/02 07:21:07;;;;;;;21.10;7.07;;;;;;;0.94;100.00;99989.75;5112718;28;20485;-69
2021/12/02 07:23:33;;;;;;;22.55;7.43;;;;;;;0.96;100.00;99993.28;5115701;27;20106;-70
2021/12/02 07:25:59;;;;;;;23.05;6.88;;;;;;;0.97;100.00;99993.31;5112693;27;20351;-71
2021/12/02 07:28:25;;;;;;;22.02;5.90;;;;;;;1.04;100.00;99995.25;5114151;28;20466;-71
2021/12/02 07:30:52;;;;;;;22.27;7.00;;;;;;;1.01;100.00;100002.13;5114921;28;20039;-70
2021/12/02 07:33:19;;;;;;;21.20;5.60;;;;;;;0.98;100.00;100010.72;5115329;28;20413;-71
2021/12/02 07:35:44;;;;;;;21.00;6.32;;;;;;;0.91;100.00;99998.34;5112817;28;20019;-71
2021/12/02 07:38:09;;;;;;;21.58;4.90;;;;;;;0.98;100.00;100008.09;5113674;28;20024;-70
2021/12/02 07:40:37;;;;;;;18.77;4.40;;;;;;;0.98;100.00;100000.28;5115596;28;20051;-70
2021/12/02 07:43:03;;;;;;;20.35;4.85;;;;;;;0.95;100.00;100013.22;5111877;28;20102;-70
2021/12/02 07:45:40;;;;;;;20.15;5.07;;;;;;;0.88;100.00;100016.47;5097113;28;20019;-70
2021/12/02 07:48:06;;;;;;;20.30;4.50;;;;;;;0.92;100.00;100013.13;5112921;28;20028;-71
2021/12/02 07:50:34;;;;;;;19.05;4.82;;;;;;;0.84;100.00;100009.41;5114018;28;20359;-71
2021/12/02 07:53:01;;;;;;;17.88;4.40;;;;;;;0.79;100.00;100011.88;5113189;28;20023;-72
2021/12/02 07:55:29;;;;;;;20.23;4.90;;;;;;;0.75;100.00;100010.00;5111572;28;20020;-70
2021/12/02 07:57:57;;;;;;;20.63;5.50;;;;;;;0.71;100.00;100012.47;5092028;28;20386;-71
2021/12/02 08:00:25;;;;;;;20.02;5.43;;;;;;;0.63;100.00;100020.91;5112599;28;20032;-71
2021/12/02 08:02:52;;;;;;;21.52;5.43;;;;;;;0.57;100.00;100023.34;5112707;28;20382;-71
2021/12/02 08:05:21;;;;;;;20.58;5.50;;;;;;;0.53;100.00;100026.66;5110691;28;20026;-70
2021/12/02 08:07:47;;;;;;;22.27;5.80;;;;;;;0.53;100.00;100018.88;5113319;28;20028;-70
2021/12/02 08:10:14;;;;;;;22.38;6.18;;;;;;;0.53;100.00;100034.47;5114952;28;20031;-71
2021/12/02 08:12:45;;;;;;;23.50;7.45;;;;;;;0.50;100.00;100029.19;5112239;28;20049;-72
2021/12/02 08:15:11;;;;;;;26.13;9.15;;;;;;;0.46;100.00;100027.31;5114637;28;20030;-71
2021/12/02 08:17:36;;;;;;;27.40;10.75;;;;;;;0.42;100.00;100031.50;5111100;28;20035;-71
2021/12/02 08:20:03;;;;;;;25.30;10.80;;;;;;;0.39;100.00;100033.16;5109639;28;20032;-70
2021/12/02 08:22:30;;;;;;;26.27;11.07;;;;;;;0.33;100.00;100045.09;5115446;28;20107;-70
2021/12/02 08:24:55;;;;;;;26.52;11.35;;;;;;;0.30;100.00;100038.94;5111258;28;20027;-69
2021/12/02 08:27:22;;;;;;;26.67;11.40;;;;;;;0.27;100.00;100039.69;5111228;28;20167;-71
2021/12/02 08:29:47;;;;;;;28.33;10.95;;;;;;;0.24;100.00;100044.81;5109036;28;20533;-69
2021/12/02 08:32:13;;;;;;;24.92;10.73;;;;;;;0.23;100.00;100042.16;5113136;28;20027;-71
2021/12/02 08:34:39;;;;;;;26.63;10.50;;;;;;;0.29;100.00;100045.84;5112915;27;20038;-71
2021/12/02 08:37:05;;;;;;;25.48;10.68;;;;;;;0.41;100.00;100049.66;5113621;27;20042;-69
2021/12/02 08:39:31;;;;;;;25.95;10.25;;;;;;;0.52;100.00;100043.09;5094669;28;20023;-72
2021/12/02 08:41:57;;;;;;;26.30;9.70;;;;;;;0.75;100.00;100045.56;5117937;27;20454;-70
2021/12/02 08:44:25;;;;;;;24.63;9.52;;;;;;;0.93;100.00;100046.09;5119740;27;20078;-71
2021/12/02 08:46:52;;;;;;;24.58;7.82;;;;;;;0.96;100.00;100054.03;5116761;27;20048;-71
2021/12/02 08:49:19;;;;;;;21.45;6.60;;;;;;;0.97;100.00;100066.19;5114649;27;20028;-71
2021/12/02 08:51:45;;;;;;;21.92;6.90;;;;;;;1.11;100.00;100074.44;5116754;27;20460;-70
2021/12/02 08:54:12;;;;;;;20.85;5.85;;;;;;;1.37;100.00;100080.44;5115668;27;20116;-70
2021/12/02 08:56:37;;;;;;;22.27;6.03;;;;;;;1.65;100.00;100081.22;5115987;27;20060;-69
2021/12/02 08:59:03;;;;;;;23.08;5.88;;;;;;;1.79;100.00;100091.13;5117084;27;20024;-70
2021/12/02 09:01:29;;;;;;;21.80;6.15;;;;;;;1.83;100.00;100095.59;5116197;27;20098;-71
2021/12/02 09:03:55;;;;;;;22.20;5.90;;;;;;;1.77;100.00;100108.47;5117833;27;20034;-69
2021/12/02 09:06:22;;;;;;;23.08;6.30;;;;;;;1.80;100.00;100104.22;5118840;27;20036;-71
2021/12/02 09:08:49;;;;;;;21.67;6.25;;;;;;;1.69;100.00;100122.16;5115492;27;20119;-70
2021/12/02 09:11:15;;;;;;;22.05;6.75;;;;;;;1.73;100.00;100110.09;5118387;27;20024;-70
2021/12/02 09:13:42;;;;;;;24.35;6.80;;;;;;;1.70;100.00;100121.34;5118539;27;20056;-71
2021/12/02 09:16:07;;;;;;;20.80;5.82;;;;;;;1.77;100.00;100129.31;5118636;27;20379;-70
2021/12/02 09:18:33;;;;;;;22.95;6.07;;;;;;;1.55;100.00;100126.97;5120978;27;20054;-69
2021/12/02 09:20:59;;;;;;;21.48;5.72;;;;;;;1.57;100.00;100127.00;5122171;27;20031;-70
2021/12/02 09:23:26;;;;;;;23.48;6.10;;;;;;;1.48;100.00;100129.34;5118412;27;20122;-70
2021/12/02 09:25:52;;;;;;;19.42;5.40;;;;;;;1.46;100.00;100125.81;5116282;27;20080;-71
2021/12/02 09:28:17;;;;;;;20.23;4.97;;;;;;;1.50;100.00;100140.69;5118705;27;20018;-71
2021/12/02 09:30:43;;;;;;;22.35;5.78;;;;;;;1.50;100.00;100138.06;5118799;27;20032;-70
2021/12/02 09:33:09;;;;;;;21.30;5.13;;;;;;;1.48;100.00;100142.38;5119213;27;20091;-70
2021/12/02 09:35:35;;;;;;;21.80;5.30;;;;;;;1.50;100.00;100140.69;5122227;27;20055;-71
2021/12/02 09:38:01;;;;;;;22.45;5.43;;;;;;;1.45;100.00;100144.88;5117976;27;20019;-69
2021/12/02 09:40:26;;;;;;;21.08;5.13;;;;;;;1.42;100.00;100137.00;5119404;27;20497;-69
2021/12/02 09:42:52;;;;;;;25.40;5.50;;;;;;;1.43;100.00;100136.13;5117251;27;20023;-71
2021/12/02 09:45:17;;;;;;;21.08;5.32;;;;;;;1.47;100.00;100148.41;5119191;27;20026;-68
2021/12/02 09:47:47;;;;;;;23.05;5.55;;;;;;;1.48;100.00;100151.06;5117035;27;20027;-70
2021/12/02 09:50:22;;;;;;;19.95;4.80;;;;;;;1.61;100.00;100141.88;5115693;27;20027;-71
2021/12/02 09:52:48;;;;;;;21.50;5.10;;;;;;;1.63;100.00;100150.66;5117040;27;20024;-70
2021/12/02 09:55:24;;;;;;;22.05;5.05;;;;;;;1.72;100.00;100150.91;5118646;27;20027;-70
2021/12/02 09:57:56;;;;;;;21.50;5.20;;;;;;;1.83;100.00;100147.72;5115404;27;20015;-70
2021/12/02 10:00:29;;;;;;;20.70;4.40;;;;;;;1.94;100.00;100145.41;5116851;27;20549;-70
2021/12/02 10:03:05;;;;;;;22.50;5.00;;;;;;;2.04;100.00;100140.53;5115666;27;20028;-71
2021/12/02 10:05:46;;;;;;;20.48;4.40;;;;;;;2.41;100.00;100138.88;5116942;27;20024;-71
2021/12/02 10:08:21;;;;;;;21.38;4.88;;;;;;;2.84;100.00;100148.66;5114923;27;20031;-70
2021/12/02 10:11:03;;;;;;;21.40;5.03;;;;;;;3.10;100.00;100152.78;5119238;27;20033;-71
2021/12/02 10:13:58;;;;;;;18.92;4.30;;;;;;;3.53;100.00;100154.63;5116011;27;20104;-69
2021/12/02 10:19:09;;;;;;;19.75;4.18;;;;;;;3.49;100.00;100154.56;5114740;27;20062;-70
2021/12/02 10:21:46;;;;;;;18.83;4.03;;;;;;;3.14;100.00;100161.56;5112334;27;20035;-69
2021/12/02 10:24:17;;;;;;;20.20;4.50;;;;;;;2.93;100.00;100172.41;5115504;27;20485;-70
2021/12/02 10:26:56;;;;;;;19.20;4.25;;;;;;;2.82;100.00;100169.50;5113442;27;20492;-69
2021/12/02 10:29:24;;;;;;;18.45;4.22;;;;;;;2.75;100.00;100178.00;5112900;27;20035;-70
2021/12/02 10:32:11;;;;;;;18.48;4.32;;;;;;;2.60;100.00;100170.69;5113238;27;20118;-70
2021/12/02 10:34:48;;;;;;;19.40;4.53;;;;;;;2.40;100.00;100171.06;5114413;27;20475;-70
2021/12/02 10:37:13;;;;;;;20.83;5.00;;;;;;;2.40;100.00;100168.44;5113352;27;20027;-69
2021/12/02 10:39:39;;;;;;;21.38;4.75;;;;;;;2.38;100.00;100170.13;5114617;27;20030;-70
2021/12/02 10:42:08;;;;;;;22.45;4.88;;;;;;;2.51;100.00;100173.06;5117042;27;20037;-70
2021/12/02 10:44:35;;;;;;;19.90;5.40;;;;;;;2.45;100.00;100184.22;5098226;28;20115;-70
2021/12/02 10:47:12;;;;;;;19.15;4.63;;;;;;;2.55;100.00;100195.75;5118383;27;20076;-71
2021/12/02 10:49:43;;;;;;;18.55;4.25;;;;;;;2.57;100.00;100192.34;5118763;27;20023;-71
2021/12/02 10:52:22;;;;;;;17.75;4.05;;;;;;;2.69;100.00;100186.56;5119847;27;20474;-68
2021/12/02 10:54:52;;;;;;;17.73;3.78;;;;;;;2.70;100.00;100188.34;5115535;27;20089;-69
2021/12/02 10:57:21;;;;;;;18.83;4.00;;;;;;;2.68;100.00;100195.28;5118333;27;20051;-70
2021/12/02 10:59:53;;;;;;;18.65;4.10;;;;;;;2.85;100.00;100197.41;5118494;27;20535;-69
2021/12/02 11:02:20;;;;;;;21.00;3.90;;;;;;;2.83;100.00;100201.72;5115797;27;20031;-70
2021/12/02 11:04:56;;;;;;;17.45;4.05;;;;;;;3.06;100.00;100192.72;5116737;27;20023;-72
2021/12/02 11:07:21;;;;;;;20.35;4.40;;;;;;;3.52;100.00;100205.13;5114576;27;20031;-72
2021/12/02 11:09:49;;;;;;;18.75;3.90;;;;;;;3.66;100.00;100207.19;5115877;27;20035;-73
2021/12/02 11:12:31;;;;;;;20.15;4.95;;;;;;;3.42;100.00;100212.75;5117712;27;20032;-72
2021/12/02 11:15:02;;;;;;;20.95;5.30;;;;;;;3.03;100.00;100212.66;5117777;27;20020;-72
2021/12/02 11:17:30;;;;;;;18.33;4.38;;;;;;;2.84;100.00;100206.09;5114519;27;20063;-70
2021/12/02 11:19:58;;;;;;;20.85;5.40;;;;;;;2.97;100.00;100215.97;5115493;27;20072;-70
2021/12/02 11:22:27;;;;;;;18.38;4.50;;;;;;;3.09;100.00;100207.59;5113290;28;20019;-72
2021/12/02 11:24:52;;;;;;;18.88;4.03;;;;;;;3.06;100.00;100213.63;5114417;27;20031;-69
2021/12/02 11:27:33;;;;;;;19.90;4.80;;;;;;;3.23;100.00;100215.75;5116509;27;20019;-70
2021/12/02 11:30:03;;;;;;;17.83;4.30;;;;;;;4.48;100.00;100211.47;5120425;27;20037;-71
2021/12/02 11:32:51;;;;;;;17.13;3.60;;;;;;;5.87;100.00;100210.22;5122087;28;20023;-72
2021/12/02 11:35:23;;;;;;;16.20;3.50;;;;;;;7.99;92.53;100208.69;5116160;28;20039;-72
2021/12/02 11:38:04;;;;;;;12.40;2.85;;;;;;;7.82;79.62;100215.56;5117386;28;20027;-72
2021/12/02 11:40:42;;;;;;;11.90;2.80;;;;;;;6.39;83.36;100223.13;5120089;28;20035;-70
2021/12/02 11:43:09;;;;;;;17.42;2.80;;;;;;;5.59;86.76;100223.81;5122400;28;20538;-71
2021/12/02 11:45:42;;;;;;;13.27;2.60;;;;;;;5.17;90.53;100226.63;5122805;28;20032;-71
2021/12/02 11:48:08;;;;;;;12.25;2.50;;;;;;;4.94;90.27;100221.03;5122121;28;20475;-71
2021/12/02 11:50:33;;;;;;;11.45;2.50;;;;;;;4.72;90.89;100228.50;5104305;28;20046;-69
2021/12/02 11:52:58;;;;;;;8.30;2.20;;;;;;;4.71;95.55;100217.13;5124034;28;20015;-72